sensor_id;sensor_type;location;lat;lon;timestamp;temperature;humidity
12688;DHT22;6408;59.388;17.798;2023-02-08T00:00:20;2.40;99.90
12688;DHT22;6408;59.388;17.798;2023-02-08T00:02:48;2.40;99.90
12688;DHT22;6408;59.388;17.798;2023-02-08T00:05:16;2.40;99.90
12688;DHT22;6408;59.388;17.798;2023-02-08T00:07:44;2.40;99.90
12688;DHT22;6408;59.388;17.798;2023-02-08T00:10:14;2.40;99.90
12688;DHT22;6408;59.388;17.798;2023-02-08T00:12:41;2.40;99.90
12688;DHT22;6408;59.388;17.798;2023-02-08T00:15:09;2.40;99.90
12688;DHT22;6408;59.388;17.798;2023-02-08T00:17:36;2.50;99.90
12688;DHT22;6408;59.388;17.798;2023-02-08T00:20:05;2.40;99.90
12688;DHT22;6408;59.388;17.798;2023-02-08T00:22:35;2.40;99.90
12688;DHT22;6408;59.388;17.798;2023-02-08T00:25:04;2.40;99.90
12688;DHT22;6408;59.388;17.798;2023-02-08T00:27:33;2.40;99.90
12688;DHT22;6408;59.388;17.798;2023-02-08T00:30:01;2.40;99.90
12688;DHT22;6408;59.388;17.798;2023-02-08T00:32:28;2.40;99.90
12688;DHT22;6408;59.388;17.798;2023-02-08T00:34:56;2.40;99.90
12688;DHT22;6408;59.388;17.798;2023-02-08T00:37:23;2.40;99.90
12688;DHT22;6408;59.388;17.798;2023-02-08T00:39:51;2.40;99.90
12688;DHT22;6408;59.388;17.798;2023-02-08T00:42:18;2.40;99.90
12688;DHT22;6408;59.388;17.798;2023-02-08T00:44:48;2.50;99.90
12688;DHT22;6408;59.388;17.798;2023-02-08T00:47:15;2.40;99.90
12688;DHT22;6408;59.388;17.798;2023-02-08T00:49:43;2.50;99.90
12688;DHT22;6408;59.388;17.798;2023-02-08T00:52:11;2.50;99.90
12688;DHT22;6408;59.388;17.798;2023-02-08T00:54:38;2.50;99.90
12688;DHT22;6408;59.388;17.798;2023-02-08T00:57:07;2.50;99.90
12688;DHT22;6408;59.388;17.798;2023-02-08T00:59:35;2.50;99.90
12688;DHT22;6408;59.388;17.798;2023-02-08T01:02:04;2.50;99.90
12688;DHT22;6408;59.388;17.798;2023-02-08T01:04:32;2.50;99.90
12688;DHT22;6408;59.388;17.798;2023-02-08T01:07:00;2.50;99.90
12688;DHT22;6408;59.388;17.798;2023-02-08T01:09:27;2.50;99.90
12688;DHT22;6408;59.388;17.798;2023-02-08T01:11:55;2.60;99.90
12688;DHT22;6408;59.388;17.798;2023-02-08T01:14:23;2.60;99.90
12688;DHT22;6408;59.388;17.798;2023-02-08T01:16:50;2.60;99.90
12688;DHT22;6408;59.388;17.798;2023-02-08T01:19:20;2.60;99.90
12688;DHT22;6408;59.388;17.798;2023-02-08T01:21:47;2.60;99.90
12688;DHT22;6408;59.388;17.798;2023-02-08T01:24:15;2.60;99.90
12688;DHT22;6408;59.388;17.798;2023-02-08T01:26:43;2.60;99.90
12688;DHT22;6408;59.388;17.798;2023-02-08T01:29:11;2.60;99.90
12688;DHT22;6408;59.388;17.798;2023-02-08T01:31:40;2.60;99.90
12688;DHT22;6408;59.388;17.798;2023-02-08T01:34:09;2.60;99.90
12688;DHT22;6408;59.388;17.798;2023-02-08T01:36:39;2.60;99.90
12688;DHT22;6408;59.388;17.798;2023-02-08T01:39:07;2.60;99.90
12688;DHT22;6408;59.388;17.798;2023-02-08T01:41:37;2.60;99.90
12688;DHT22;6408;59.388;17.798;2023-02-08T01:44:08;2.60;99.90
12688;DHT22;6408;59.388;17.798;2023-02-08T01:46:55;2.70;99.90
12688;DHT22;6408;59.388;17.798;2023-02-08T01:49:27;2.70;99.90
12688;DHT22;6408;59.388;17.798;2023-02-08T01:51:59;2.70;99.90
12688;DHT22;6408;59.388;17.798;2023-02-08T01:54:31;2.70;99.90
12688;DHT22;6408;59.388;17.798;2023-02-08T01:57:01;2.70;99.90
12688;DHT22;6408;59.388;17.798;2023-02-08T01:59:32;2.70;99.90
12688;DHT22;6408;59.388;17.798;2023-02-08T02:02:03;2.80;99.90
12688;DHT22;6408;59.388;17.798;2023-02-08T02:04:31;2.80;99.90
12688;DHT22;6408;59.388;17.798;2023-02-08T02:07:02;2.70;99.90
12688;DHT22;6408;59.388;17.798;2023-02-08T02:09:32;2.70;99.90
12688;DHT22;6408;59.388;17.798;2023-02-08T02:12:04;2.60;99.90
12688;DHT22;6408;59.388;17.798;2023-02-08T02:14:34;2.70;99.90
12688;DHT22;6408;59.388;17.798;2023-02-08T02:17:03;2.80;99.90
12688;DHT22;6408;59.388;17.798;2023-02-08T02:19:39;2.80;99.90
12688;DHT22;6408;59.388;17.798;2023-02-08T02:22:33;2.80;99.90
12688;DHT22;6408;59.388;17.798;2023-02-08T02:28:51;2.70;99.90
12688;DHT22;6408;59.388;17.798;2023-02-08T02:31:49;2.70;99.90
12688;DHT22;6408;59.388;17.798;2023-02-08T02:34:24;2.80;99.90
12688;DHT22;6408;59.388;17.798;2023-02-08T02:37:00;2.80;99.90
12688;DHT22;6408;59.388;17.798;2023-02-08T02:39:34;2.80;99.90
12688;DHT22;6408;59.388;17.798;2023-02-08T02:42:11;2.80;99.90
12688;DHT22;6408;59.388;17.798;2023-02-08T02:45:05;2.70;99.90
12688;DHT22;6408;59.388;17.798;2023-02-08T02:47:38;2.80;99.90
12688;DHT22;6408;59.388;17.798;2023-02-08T02:50:13;2.70;99.90
12688;DHT22;6408;59.388;17.798;2023-02-08T02:52:47;2.80;99.90
12688;DHT22;6408;59.388;17.798;2023-02-08T02:55:21;2.80;99.90
12688;DHT22;6408;59.388;17.798;2023-02-08T02:57:51;2.80;99.90
12688;DHT22;6408;59.388;17.798;2023-02-08T03:00:22;2.80;99.90
12688;DHT22;6408;59.388;17.798;2023-02-08T03:02:52;2.80;99.90
12688;DHT22;6408;59.388;17.798;2023-02-08T03:05:23;2.80;99.90
12688;DHT22;6408;59.388;17.798;2023-02-08T03:08:17;2.80;99.90
12688;DHT22;6408;59.388;17.798;2023-02-08T03:11:13;2.80;99.90
12688;DHT22;6408;59.388;17.798;2023-02-08T03:14:02;2.80;99.90
12688;DHT22;6408;59.388;17.798;2023-02-08T03:16:43;2.80;99.90
12688;DHT22;6408;59.388;17.798;2023-02-08T03:19:24;2.90;99.90
12688;DHT22;6408;59.388;17.798;2023-02-08T03:21:55;2.90;99.90
12688;DHT22;6408;59.388;17.798;2023-02-08T03:24:27;2.90;99.90
12688;DHT22;6408;59.388;17.798;2023-02-08T03:26:59;2.90;99.90
12688;DHT22;6408;59.388;17.798;2023-02-08T03:29:39;2.80;99.90
12688;DHT22;6408;59.388;17.798;2023-02-08T03:32:11;2.80;99.90
12688;DHT22;6408;59.388;17.798;2023-02-08T03:34:46;2.80;99.90
12688;DHT22;6408;59.388;17.798;2023-02-08T03:37:19;2.90;99.90
12688;DHT22;6408;59.388;17.798;2023-02-08T03:39:49;2.80;99.90
12688;DHT22;6408;59.388;17.798;2023-02-08T03:42:20;2.90;99.90
12688;DHT22;6408;59.388;17.798;2023-02-08T03:44:53;2.80;99.90
12688;DHT22;6408;59.388;17.798;2023-02-08T03:47:24;2.90;99.90
12688;DHT22;6408;59.388;17.798;2023-02-08T03:49:58;2.80;99.90
12688;DHT22;6408;59.388;17.798;2023-02-08T03:52:28;2.80;99.90
12688;DHT22;6408;59.388;17.798;2023-02-08T03:54:59;2.90;99.90
12688;DHT22;6408;59.388;17.798;2023-02-08T03:57:30;3.00;99.90
12688;DHT22;6408;59.388;17.798;2023-02-08T04:00:03;3.00;99.90
12688;DHT22;6408;59.388;17.798;2023-02-08T04:02:34;3.00;99.90
12688;DHT22;6408;59.388;17.798;2023-02-08T04:05:06;2.90;99.90
12688;DHT22;6408;59.388;17.798;2023-02-08T04:07:34;3.00;99.90
12688;DHT22;6408;59.388;17.798;2023-02-08T04:10:03;3.00;99.90
12688;DHT22;6408;59.388;17.798;2023-02-08T04:12:31;3.00;99.90
12688;DHT22;6408;59.388;17.798;2023-02-08T04:14:59;3.00;99.90
12688;DHT22;6408;59.388;17.798;2023-02-08T04:17:26;3.00;99.90
12688;DHT22;6408;59.388;17.798;2023-02-08T04:19:54;3.00;99.90
12688;DHT22;6408;59.388;17.798;2023-02-08T04:22:23;3.10;99.90
12688;DHT22;6408;59.388;17.798;2023-02-08T04:24:51;3.10;99.90
12688;DHT22;6408;59.388;17.798;2023-02-08T04:27:18;3.00;99.90
12688;DHT22;6408;59.388;17.798;2023-02-08T04:29:46;3.00;99.90
12688;DHT22;6408;59.388;17.798;2023-02-08T04:32:13;3.00;99.90
12688;DHT22;6408;59.388;17.798;2023-02-08T04:34:41;3.00;99.90
12688;DHT22;6408;59.388;17.798;2023-02-08T04:37:08;3.00;99.90
12688;DHT22;6408;59.388;17.798;2023-02-08T04:39:38;3.00;99.90
12688;DHT22;6408;59.388;17.798;2023-02-08T04:42:06;3.00;99.90
12688;DHT22;6408;59.388;17.798;2023-02-08T04:44:34;3.00;99.90
12688;DHT22;6408;59.388;17.798;2023-02-08T04:47:02;3.00;99.90
12688;DHT22;6408;59.388;17.798;2023-02-08T04:49:30;3.00;99.90
12688;DHT22;6408;59.388;17.798;2023-02-08T04:51:57;3.00;99.90
12688;DHT22;6408;59.388;17.798;2023-02-08T04:54:26;3.00;99.90
12688;DHT22;6408;59.388;17.798;2023-02-08T04:56:55;3.00;99.90
12688;DHT22;6408;59.388;17.798;2023-02-08T04:59:23;3.00;99.90
12688;DHT22;6408;59.388;17.798;2023-02-08T05:01:50;3.00;99.90
12688;DHT22;6408;59.388;17.798;2023-02-08T05:04:18;3.10;99.90
12688;DHT22;6408;59.388;17.798;2023-02-08T05:06:46;3.10;99.90
12688;DHT22;6408;59.388;17.798;2023-02-08T05:09:14;3.00;99.90
12688;DHT22;6408;59.388;17.798;2023-02-08T05:11:41;3.00;99.90
12688;DHT22;6408;59.388;17.798;2023-02-08T05:14:11;3.00;99.90
12688;DHT22;6408;59.388;17.798;2023-02-08T05:16:39;3.00;99.90
12688;DHT22;6408;59.388;17.798;2023-02-08T05:19:06;3.00;99.90
12688;DHT22;6408;59.388;17.798;2023-02-08T05:21:34;3.00;99.90
12688;DHT22;6408;59.388;17.798;2023-02-08T05:24:02;3.00;99.90
12688;DHT22;6408;59.388;17.798;2023-02-08T05:26:29;3.00;99.90
12688;DHT22;6408;59.388;17.798;2023-02-08T05:28:57;3.00;99.90
12688;DHT22;6408;59.388;17.798;2023-02-08T05:31:26;3.00;99.90
12688;DHT22;6408;59.388;17.798;2023-02-08T05:33:53;3.00;99.90
12688;DHT22;6408;59.388;17.798;2023-02-08T05:36:21;3.00;99.90
12688;DHT22;6408;59.388;17.798;2023-02-08T05:38:49;3.00;99.90
12688;DHT22;6408;59.388;17.798;2023-02-08T05:41:18;3.00;99.90
12688;DHT22;6408;59.388;17.798;2023-02-08T05:43:45;3.00;99.90
12688;DHT22;6408;59.388;17.798;2023-02-08T05:46:13;3.00;99.90
12688;DHT22;6408;59.388;17.798;2023-02-08T05:48:42;3.00;99.90
12688;DHT22;6408;59.388;17.798;2023-02-08T05:51:10;3.00;99.90
12688;DHT22;6408;59.388;17.798;2023-02-08T05:53:38;3.00;99.90
12688;DHT22;6408;59.388;17.798;2023-02-08T05:56:06;3.00;99.90
12688;DHT22;6408;59.388;17.798;2023-02-08T05:58:33;3.00;99.90
12688;DHT22;6408;59.388;17.798;2023-02-08T06:01:07;3.10;99.90
12688;DHT22;6408;59.388;17.798;2023-02-08T06:03:34;3.10;99.90
12688;DHT22;6408;59.388;17.798;2023-02-08T06:06:04;3.10;99.90
12688;DHT22;6408;59.388;17.798;2023-02-08T06:08:33;3.10;99.90
12688;DHT22;6408;59.388;17.798;2023-02-08T06:11:00;3.10;99.90
12688;DHT22;6408;59.388;17.798;2023-02-08T06:13:28;3.20;99.90
12688;DHT22;6408;59.388;17.798;2023-02-08T06:15:55;3.20;99.90
12688;DHT22;6408;59.388;17.798;2023-02-08T06:18:23;3.20;99.90
12688;DHT22;6408;59.388;17.798;2023-02-08T06:20:52;3.20;99.90
12688;DHT22;6408;59.388;17.798;2023-02-08T06:23:22;3.20;99.90
12688;DHT22;6408;59.388;17.798;2023-02-08T06:25:50;3.20;99.90
12688;DHT22;6408;59.388;17.798;2023-02-08T06:28:18;3.20;99.90
12688;DHT22;6408;59.388;17.798;2023-02-08T06:30:47;3.20;99.90
12688;DHT22;6408;59.388;17.798;2023-02-08T06:33:15;3.20;99.90
12688;DHT22;6408;59.388;17.798;2023-02-08T06:35:44;3.20;99.90
12688;DHT22;6408;59.388;17.798;2023-02-08T06:38:12;3.30;99.90
12688;DHT22;6408;59.388;17.798;2023-02-08T06:40:42;3.30;99.90
12688;DHT22;6408;59.388;17.798;2023-02-08T06:43:09;3.20;99.90
12688;DHT22;6408;59.388;17.798;2023-02-08T06:45:37;3.20;99.90
12688;DHT22;6408;59.388;17.798;2023-02-08T06:48:05;3.30;99.90
12688;DHT22;6408;59.388;17.798;2023-02-08T06:50:32;3.30;99.90
12688;DHT22;6408;59.388;17.798;2023-02-08T06:53:00;3.30;99.90
12688;DHT22;6408;59.388;17.798;2023-02-08T06:55:28;3.30;99.90
12688;DHT22;6408;59.388;17.798;2023-02-08T06:57:57;3.40;99.90
12688;DHT22;6408;59.388;17.798;2023-02-08T07:00:25;3.40;99.90
12688;DHT22;6408;59.388;17.798;2023-02-08T07:02:52;3.40;99.90
12688;DHT22;6408;59.388;17.798;2023-02-08T07:05:20;3.30;99.90
12688;DHT22;6408;59.388;17.798;2023-02-08T07:07:47;3.40;99.90
12688;DHT22;6408;59.388;17.798;2023-02-08T07:10:15;3.30;99.90
12688;DHT22;6408;59.388;17.798;2023-02-08T07:12:43;3.40;99.90
12688;DHT22;6408;59.388;17.798;2023-02-08T07:15:12;3.40;99.90
12688;DHT22;6408;59.388;17.798;2023-02-08T07:17:40;3.40;99.90
12688;DHT22;6408;59.388;17.798;2023-02-08T07:20:09;3.40;99.90
12688;DHT22;6408;59.388;17.798;2023-02-08T07:22:37;3.40;99.90
12688;DHT22;6408;59.388;17.798;2023-02-08T07:25:09;3.40;99.90
12688;DHT22;6408;59.388;17.798;2023-02-08T07:27:36;3.40;99.90
12688;DHT22;6408;59.388;17.798;2023-02-08T07:30:05;3.50;99.90
12688;DHT22;6408;59.388;17.798;2023-02-08T07:32:36;3.50;99.90
12688;DHT22;6408;59.388;17.798;2023-02-08T07:35:03;3.50;99.90
12688;DHT22;6408;59.388;17.798;2023-02-08T07:37:31;3.40;99.90
12688;DHT22;6408;59.388;17.798;2023-02-08T07:39:59;3.50;99.90
12688;DHT22;6408;59.388;17.798;2023-02-08T07:42:26;3.40;99.90
12688;DHT22;6408;59.388;17.798;2023-02-08T07:44:54;3.50;99.90
12688;DHT22;6408;59.388;17.798;2023-02-08T07:47:22;3.50;99.90
12688;DHT22;6408;59.388;17.798;2023-02-08T07:49:51;3.50;99.90
12688;DHT22;6408;59.388;17.798;2023-02-08T07:52:19;3.40;99.90
12688;DHT22;6408;59.388;17.798;2023-02-08T07:54:46;3.40;99.90
12688;DHT22;6408;59.388;17.798;2023-02-08T07:57:14;3.50;99.90
12688;DHT22;6408;59.388;17.798;2023-02-08T07:59:45;3.50;99.90
12688;DHT22;6408;59.388;17.798;2023-02-08T08:02:14;3.60;99.90
12688;DHT22;6408;59.388;17.798;2023-02-08T08:04:41;3.60;99.90
12688;DHT22;6408;59.388;17.798;2023-02-08T08:07:11;3.60;99.90
12688;DHT22;6408;59.388;17.798;2023-02-08T08:09:38;3.60;99.90
12688;DHT22;6408;59.388;17.798;2023-02-08T08:12:06;3.60;99.90
12688;DHT22;6408;59.388;17.798;2023-02-08T08:14:34;3.70;99.90
12688;DHT22;6408;59.388;17.798;2023-02-08T08:17:01;3.70;99.90
12688;DHT22;6408;59.388;17.798;2023-02-08T08:19:29;3.80;99.90
12688;DHT22;6408;59.388;17.798;2023-02-08T08:21:56;3.80;99.90
12688;DHT22;6408;59.388;17.798;2023-02-08T08:24:26;3.90;99.90
12688;DHT22;6408;59.388;17.798;2023-02-08T08:26:55;3.90;99.90
12688;DHT22;6408;59.388;17.798;2023-02-08T08:29:22;3.90;99.90
12688;DHT22;6408;59.388;17.798;2023-02-08T08:31:50;3.90;99.90
12688;DHT22;6408;59.388;17.798;2023-02-08T08:34:17;3.90;99.90
12688;DHT22;6408;59.388;17.798;2023-02-08T08:36:45;3.90;99.90
12688;DHT22;6408;59.388;17.798;2023-02-08T08:39:12;4.00;99.90
12688;DHT22;6408;59.388;17.798;2023-02-08T08:41:42;4.00;99.90
12688;DHT22;6408;59.388;17.798;2023-02-08T08:44:09;4.00;99.90
12688;DHT22;6408;59.388;17.798;2023-02-08T08:46:37;4.00;99.90
12688;DHT22;6408;59.388;17.798;2023-02-08T08:49:05;4.00;99.90
12688;DHT22;6408;59.388;17.798;2023-02-08T08:51:32;4.00;99.90
12688;DHT22;6408;59.388;17.798;2023-02-08T08:54:00;4.00;99.90
12688;DHT22;6408;59.388;17.798;2023-02-08T08:56:27;4.00;99.90
12688;DHT22;6408;59.388;17.798;2023-02-08T08:58:57;4.10;99.90
12688;DHT22;6408;59.388;17.798;2023-02-08T09:01:25;4.10;99.90
12688;DHT22;6408;59.388;17.798;2023-02-08T09:03:52;4.10;99.90
12688;DHT22;6408;59.388;17.798;2023-02-08T09:06:20;4.10;99.90
12688;DHT22;6408;59.388;17.798;2023-02-08T09:08:47;4.10;99.90
12688;DHT22;6408;59.388;17.798;2023-02-08T09:11:15;4.10;99.90
12688;DHT22;6408;59.388;17.798;2023-02-08T09:13:43;4.10;99.90
12688;DHT22;6408;59.388;17.798;2023-02-08T09:16:15;4.10;99.90
12688;DHT22;6408;59.388;17.798;2023-02-08T09:18:43;4.10;99.90
12688;DHT22;6408;59.388;17.798;2023-02-08T09:21:13;4.10;99.90
12688;DHT22;6408;59.388;17.798;2023-02-08T09:23:41;4.10;99.90
12688;DHT22;6408;59.388;17.798;2023-02-08T09:26:13;4.10;99.90
12688;DHT22;6408;59.388;17.798;2023-02-08T09:28:42;4.20;99.90
12688;DHT22;6408;59.388;17.798;2023-02-08T09:31:13;4.20;99.90
12688;DHT22;6408;59.388;17.798;2023-02-08T09:33:41;4.20;99.90
12688;DHT22;6408;59.388;17.798;2023-02-08T09:36:09;4.20;99.90
12688;DHT22;6408;59.388;17.798;2023-02-08T09:38:37;4.20;99.90
12688;DHT22;6408;59.388;17.798;2023-02-08T09:41:16;4.30;99.90
12688;DHT22;6408;59.388;17.798;2023-02-08T09:43:55;4.30;99.90
12688;DHT22;6408;59.388;17.798;2023-02-08T09:46:29;4.40;99.90
12688;DHT22;6408;59.388;17.798;2023-02-08T09:49:01;4.40;99.90
12688;DHT22;6408;59.388;17.798;2023-02-08T09:51:34;4.40;99.90
12688;DHT22;6408;59.388;17.798;2023-02-08T09:54:06;4.50;99.90
12688;DHT22;6408;59.388;17.798;2023-02-08T09:56:39;4.50;99.90
12688;DHT22;6408;59.388;17.798;2023-02-08T09:59:12;4.50;99.90
12688;DHT22;6408;59.388;17.798;2023-02-08T10:01:41;4.50;99.90
12688;DHT22;6408;59.388;17.798;2023-02-08T10:04:17;4.50;99.90
12688;DHT22;6408;59.388;17.798;2023-02-08T10:06:48;4.50;99.90
12688;DHT22;6408;59.388;17.798;2023-02-08T10:09:25;4.50;99.90
12688;DHT22;6408;59.388;17.798;2023-02-08T10:12:01;4.50;99.90
12688;DHT22;6408;59.388;17.798;2023-02-08T10:14:55;4.50;99.90
12688;DHT22;6408;59.388;17.798;2023-02-08T10:17:41;4.50;99.90
12688;DHT22;6408;59.388;17.798;2023-02-08T10:20:23;4.50;99.90
12688;DHT22;6408;59.388;17.798;2023-02-08T10:23:03;4.50;99.90
12688;DHT22;6408;59.388;17.798;2023-02-08T10:25:51;4.50;99.90
12688;DHT22;6408;59.388;17.798;2023-02-08T10:28:33;4.50;99.90
12688;DHT22;6408;59.388;17.798;2023-02-08T10:31:10;4.60;99.90
12688;DHT22;6408;59.388;17.798;2023-02-08T10:33:49;4.50;99.90
12688;DHT22;6408;59.388;17.798;2023-02-08T10:36:20;4.50;99.90
12688;DHT22;6408;59.388;17.798;2023-02-08T10:38:52;4.50;99.90
12688;DHT22;6408;59.388;17.798;2023-02-08T10:41:24;4.50;99.90
12688;DHT22;6408;59.388;17.798;2023-02-08T10:43:59;4.60;99.90
12688;DHT22;6408;59.388;17.798;2023-02-08T10:46:31;4.60;99.90
12688;DHT22;6408;59.388;17.798;2023-02-08T10:49:07;4.60;99.90
12688;DHT22;6408;59.388;17.798;2023-02-08T10:51:37;4.60;99.90
12688;DHT22;6408;59.388;17.798;2023-02-08T10:54:05;4.60;99.90
12688;DHT22;6408;59.388;17.798;2023-02-08T10:56:42;4.60;99.90
12688;DHT22;6408;59.388;17.798;2023-02-08T10:59:16;4.60;99.90
12688;DHT22;6408;59.388;17.798;2023-02-08T11:01:45;4.60;99.90
12688;DHT22;6408;59.388;17.798;2023-02-08T11:04:17;4.60;99.90
12688;DHT22;6408;59.388;17.798;2023-02-08T11:06:46;4.60;99.90
12688;DHT22;6408;59.388;17.798;2023-02-08T11:09:22;4.60;99.90
12688;DHT22;6408;59.388;17.798;2023-02-08T11:11:51;4.70;99.90
12688;DHT22;6408;59.388;17.798;2023-02-08T11:14:22;4.70;99.90
12688;DHT22;6408;59.388;17.798;2023-02-08T11:16:51;4.70;99.90
12688;DHT22;6408;59.388;17.798;2023-02-08T11:19:37;4.70;99.90
12688;DHT22;6408;59.388;17.798;2023-02-08T11:22:14;4.80;99.90
12688;DHT22;6408;59.388;17.798;2023-02-08T11:24:42;4.90;99.90
12688;DHT22;6408;59.388;17.798;2023-02-08T11:27:17;4.90;99.90
12688;DHT22;6408;59.388;17.798;2023-02-08T11:29:45;4.90;99.90
12688;DHT22;6408;59.388;17.798;2023-02-08T11:32:15;4.90;99.90
12688;DHT22;6408;59.388;17.798;2023-02-08T11:34:45;4.80;99.90
12688;DHT22;6408;59.388;17.798;2023-02-08T11:37:15;4.80;99.90
12688;DHT22;6408;59.388;17.798;2023-02-08T11:39:48;4.90;99.90
12688;DHT22;6408;59.388;17.798;2023-02-08T11:42:19;4.90;99.90
12688;DHT22;6408;59.388;17.798;2023-02-08T11:44:48;4.90;99.90
12688;DHT22;6408;59.388;17.798;2023-02-08T11:47:23;4.90;99.90
12688;DHT22;6408;59.388;17.798;2023-02-08T11:49:54;5.00;99.90
12688;DHT22;6408;59.388;17.798;2023-02-08T11:52:24;5.00;99.90
12688;DHT22;6408;59.388;17.798;2023-02-08T11:54:53;5.00;99.90
12688;DHT22;6408;59.388;17.798;2023-02-08T11:57:23;5.00;99.90
12688;DHT22;6408;59.388;17.798;2023-02-08T12:00:16;4.90;99.90
12688;DHT22;6408;59.388;17.798;2023-02-08T12:02:44;4.90;99.90
12688;DHT22;6408;59.388;17.798;2023-02-08T12:05:16;4.90;99.90
12688;DHT22;6408;59.388;17.798;2023-02-08T12:07:58;4.90;99.90
12688;DHT22;6408;59.388;17.798;2023-02-08T12:10:55;5.00;99.90
12688;DHT22;6408;59.388;17.798;2023-02-08T12:13:59;5.00;99.90
12688;DHT22;6408;59.388;17.798;2023-02-08T12:16:46;4.90;99.90
12688;DHT22;6408;59.388;17.798;2023-02-08T12:19:53;4.90;99.90
12688;DHT22;6408;59.388;17.798;2023-02-08T12:22:25;5.00;99.90
12688;DHT22;6408;59.388;17.798;2023-02-08T12:24:58;5.00;99.90
12688;DHT22;6408;59.388;17.798;2023-02-08T12:27:36;5.00;99.90
12688;DHT22;6408;59.388;17.798;2023-02-08T12:30:15;4.90;99.90
12688;DHT22;6408;59.388;17.798;2023-02-08T12:33:02;4.90;99.90
12688;DHT22;6408;59.388;17.798;2023-02-08T12:36:01;4.90;99.90
12688;DHT22;6408;59.388;17.798;2023-02-08T12:42:05;5.00;99.90
12688;DHT22;6408;59.388;17.798;2023-02-08T12:44:49;5.00;99.90
12688;DHT22;6408;59.388;17.798;2023-02-08T12:47:34;5.00;99.90
12688;DHT22;6408;59.388;17.798;2023-02-08T12:50:09;5.10;99.90
12688;DHT22;6408;59.388;17.798;2023-02-08T12:52:43;5.10;99.90
12688;DHT22;6408;59.388;17.798;2023-02-08T12:55:16;5.20;99.90
12688;DHT22;6408;59.388;17.798;2023-02-08T12:57:50;5.10;99.90
12688;DHT22;6408;59.388;17.798;2023-02-08T13:00:21;5.00;99.90
12688;DHT22;6408;59.388;17.798;2023-02-08T13:02:57;5.00;99.90
12688;DHT22;6408;59.388;17.798;2023-02-08T13:05:30;5.00;99.90
12688;DHT22;6408;59.388;17.798;2023-02-08T13:08:06;5.10;99.90
12688;DHT22;6408;59.388;17.798;2023-02-08T13:10:37;5.10;99.90
12688;DHT22;6408;59.388;17.798;2023-02-08T13:13:12;5.10;99.90
12688;DHT22;6408;59.388;17.798;2023-02-08T13:15:44;5.00;99.90
12688;DHT22;6408;59.388;17.798;2023-02-08T13:18:16;5.00;99.90
12688;DHT22;6408;59.388;17.798;2023-02-08T13:20:46;5.00;99.90
12688;DHT22;6408;59.388;17.798;2023-02-08T13:23:21;5.00;99.90
12688;DHT22;6408;59.388;17.798;2023-02-08T13:25:52;5.00;99.90
12688;DHT22;6408;59.388;17.798;2023-02-08T13:28:24;5.00;99.90
12688;DHT22;6408;59.388;17.798;2023-02-08T13:30:55;5.00;99.90
12688;DHT22;6408;59.388;17.798;2023-02-08T13:33:30;5.00;99.90
12688;DHT22;6408;59.388;17.798;2023-02-08T13:35:59;5.00;99.90
12688;DHT22;6408;59.388;17.798;2023-02-08T13:38:28;5.00;99.90
12688;DHT22;6408;59.388;17.798;2023-02-08T13:41:05;4.90;99.90
12688;DHT22;6408;59.388;17.798;2023-02-08T13:43:40;4.90;99.90
12688;DHT22;6408;59.388;17.798;2023-02-08T13:46:09;4.90;99.90
12688;DHT22;6408;59.388;17.798;2023-02-08T13:48:44;4.90;99.90
12688;DHT22;6408;59.388;17.798;2023-02-08T13:51:49;4.90;99.90
12688;DHT22;6408;59.388;17.798;2023-02-08T13:54:17;4.80;99.90
12688;DHT22;6408;59.388;17.798;2023-02-08T13:56:46;4.80;99.90
12688;DHT22;6408;59.388;17.798;2023-02-08T13:59:31;4.80;99.90
12688;DHT22;6408;59.388;17.798;2023-02-08T14:02:27;4.90;99.90
12688;DHT22;6408;59.388;17.798;2023-02-08T14:05:32;4.90;99.90
12688;DHT22;6408;59.388;17.798;2023-02-08T14:08:01;4.90;99.90
12688;DHT22;6408;59.388;17.798;2023-02-08T14:10:34;4.90;99.90
12688;DHT22;6408;59.388;17.798;2023-02-08T14:13:14;4.90;99.90
12688;DHT22;6408;59.388;17.798;2023-02-08T14:15:45;4.90;99.90
12688;DHT22;6408;59.388;17.798;2023-02-08T14:18:23;4.80;99.90
12688;DHT22;6408;59.388;17.798;2023-02-08T14:21:01;4.80;99.90
12688;DHT22;6408;59.388;17.798;2023-02-08T14:23:31;4.90;99.90
12688;DHT22;6408;59.388;17.798;2023-02-08T14:26:05;4.90;99.90
12688;DHT22;6408;59.388;17.798;2023-02-08T14:28:35;4.90;99.90
12688;DHT22;6408;59.388;17.798;2023-02-08T14:31:09;4.90;99.90
12688;DHT22;6408;59.388;17.798;2023-02-08T14:33:39;4.90;99.90
12688;DHT22;6408;59.388;17.798;2023-02-08T14:36:21;4.90;99.90
12688;DHT22;6408;59.388;17.798;2023-02-08T14:39:05;4.80;99.90
12688;DHT22;6408;59.388;17.798;2023-02-08T14:41:48;4.80;99.90
12688;DHT22;6408;59.388;17.798;2023-02-08T14:50:32;4.80;99.90
12688;DHT22;6408;59.388;17.798;2023-02-08T14:53:18;4.80;99.90
12688;DHT22;6408;59.388;17.798;2023-02-08T14:55:50;4.80;99.90
12688;DHT22;6408;59.388;17.798;2023-02-08T14:58:26;4.80;99.90
12688;DHT22;6408;59.388;17.798;2023-02-08T15:00:56;4.70;99.90
12688;DHT22;6408;59.388;17.798;2023-02-08T15:03:30;4.70;99.90
12688;DHT22;6408;59.388;17.798;2023-02-08T15:06:28;4.70;99.90
12688;DHT22;6408;59.388;17.798;2023-02-08T15:08:57;4.60;99.90
12688;DHT22;6408;59.388;17.798;2023-02-08T15:11:28;4.60;99.90
12688;DHT22;6408;59.388;17.798;2023-02-08T15:13:57;4.60;99.90
12688;DHT22;6408;59.388;17.798;2023-02-08T15:16:28;4.50;99.90
12688;DHT22;6408;59.388;17.798;2023-02-08T15:19:02;4.50;99.90
12688;DHT22;6408;59.388;17.798;2023-02-08T15:21:31;4.60;99.90
12688;DHT22;6408;59.388;17.798;2023-02-08T15:24:03;4.50;99.90
12688;DHT22;6408;59.388;17.798;2023-02-08T15:26:32;4.50;99.90
12688;DHT22;6408;59.388;17.798;2023-02-08T15:29:00;4.50;99.90
12688;DHT22;6408;59.388;17.798;2023-02-08T15:31:31;4.60;99.90
12688;DHT22;6408;59.388;17.798;2023-02-08T15:34:01;4.50;99.90
12688;DHT22;6408;59.388;17.798;2023-02-08T15:36:30;4.50;99.90
12688;DHT22;6408;59.388;17.798;2023-02-08T15:39:01;4.50;99.90
12688;DHT22;6408;59.388;17.798;2023-02-08T15:41:30;4.50;99.90
12688;DHT22;6408;59.388;17.798;2023-02-08T15:44:12;4.50;99.90
12688;DHT22;6408;59.388;17.798;2023-02-08T15:46:42;4.50;99.90
12688;DHT22;6408;59.388;17.798;2023-02-08T15:49:14;4.50;99.90
12688;DHT22;6408;59.388;17.798;2023-02-08T15:51:43;4.50;99.90
12688;DHT22;6408;59.388;17.798;2023-02-08T15:54:15;4.50;99.90
12688;DHT22;6408;59.388;17.798;2023-02-08T15:56:48;4.50;99.90
12688;DHT22;6408;59.388;17.798;2023-02-08T15:59:19;4.40;99.90
12688;DHT22;6408;59.388;17.798;2023-02-08T16:01:48;4.40;99.90
12688;DHT22;6408;59.388;17.798;2023-02-08T16:04:18;4.40;99.90
12688;DHT22;6408;59.388;17.798;2023-02-08T16:06:48;4.50;99.90
12688;DHT22;6408;59.388;17.798;2023-02-08T16:09:19;4.50;99.90
12688;DHT22;6408;59.388;17.798;2023-02-08T16:11:50;4.40;99.90
12688;DHT22;6408;59.388;17.798;2023-02-08T16:14:19;4.40;99.90
12688;DHT22;6408;59.388;17.798;2023-02-08T16:16:51;4.40;99.90
12688;DHT22;6408;59.388;17.798;2023-02-08T16:19:26;4.40;99.90
12688;DHT22;6408;59.388;17.798;2023-02-08T16:21:55;4.40;99.90
12688;DHT22;6408;59.388;17.798;2023-02-08T16:24:24;4.40;99.90
12688;DHT22;6408;59.388;17.798;2023-02-08T16:26:59;4.40;99.90